sensor_id;sensor_type;location;lat;lon;timestamp;P1;durP1;ratioP1;P2;durP2;ratioP2
9166;SDS011;4618;48.818;9.088;2022-08-19T00:00:20;10.03;;;8.13;;
9166;SDS011;4618;48.818;9.088;2022-08-19T00:02:46;9.90;;;8.00;;
9166;SDS011;4618;48.818;9.088;2022-08-19T00:05:12;9.40;;;8.07;;
9166;SDS011;4618;48.818;9.088;2022-08-19T00:07:39;9.57;;;8.50;;
9166;SDS011;4618;48.818;9.088;2022-08-19T00:10:08;9.40;;;8.10;;
9166;SDS011;4618;48.818;9.088;2022-08-19T00:12:36;10.10;;;8.40;;
9166;SDS011;4618;48.818;9.088;2022-08-19T00:15:03;10.70;;;8.60;;
9166;SDS011;4618;48.818;9.088;2022-08-19T00:17:36;9.83;;;8.40;;
9166;SDS011;4618;48.818;9.088;2022-08-19T00:20:03;11.20;;;8.73;;
9166;SDS011;4618;48.818;9.088;2022-08-19T00:22:29;8.83;;;7.87;;
9166;SDS011;4618;48.818;9.088;2022-08-19T00:24:55;10.17;;;8.33;;
9166;SDS011;4618;48.818;9.088;2022-08-19T00:27:20;10.67;;;9.20;;
9166;SDS011;4618;48.818;9.088;2022-08-19T00:29:46;9.23;;;7.67;;
9166;SDS011;4618;48.818;9.088;2022-08-19T00:32:11;10.23;;;8.83;;
9166;SDS011;4618;48.818;9.088;2022-08-19T00:34:37;9.57;;;8.13;;
9166;SDS011;4618;48.818;9.088;2022-08-19T00:37:02;9.13;;;7.53;;
9166;SDS011;4618;48.818;9.088;2022-08-19T00:39:28;10.17;;;8.83;;
9166;SDS011;4618;48.818;9.088;2022-08-19T00:41:55;10.40;;;8.37;;
9166;SDS011;4618;48.818;9.088;2022-08-19T00:44:23;11.43;;;9.30;;
9166;SDS011;4618;48.818;9.088;2022-08-19T00:46:52;10.37;;;8.50;;
9166;SDS011;4618;48.818;9.088;2022-08-19T00:52:00;11.70;;;9.23;;
9166;SDS011;4618;48.818;9.088;2022-08-19T00:54:33;11.03;;;9.03;;
9166;SDS011;4618;48.818;9.088;2022-08-19T00:56:59;12.37;;;9.40;;
9166;SDS011;4618;48.818;9.088;2022-08-19T00:59:29;11.13;;;9.23;;
9166;SDS011;4618;48.818;9.088;2022-08-19T01:01:55;11.00;;;8.97;;
9166;SDS011;4618;48.818;9.088;2022-08-19T01:04:21;11.30;;;9.43;;
9166;SDS011;4618;48.818;9.088;2022-08-19T01:06:46;12.17;;;9.17;;
9166;SDS011;4618;48.818;9.088;2022-08-19T01:09:12;11.17;;;8.80;;
9166;SDS011;4618;48.818;9.088;2022-08-19T01:11:39;13.17;;;9.10;;
9166;SDS011;4618;48.818;9.088;2022-08-19T01:14:08;10.53;;;8.63;;
9166;SDS011;4618;48.818;9.088;2022-08-19T01:16:35;10.23;;;8.93;;
9166;SDS011;4618;48.818;9.088;2022-08-19T01:19:04;11.60;;;9.47;;
9166;SDS011;4618;48.818;9.088;2022-08-19T01:21:41;10.30;;;8.87;;
9166;SDS011;4618;48.818;9.088;2022-08-19T01:24:12;13.80;;;9.87;;
9166;SDS011;4618;48.818;9.088;2022-08-19T01:26:42;9.73;;;8.70;;
9166;SDS011;4618;48.818;9.088;2022-08-19T01:29:08;11.40;;;9.97;;
9166;SDS011;4618;48.818;9.088;2022-08-19T01:31:35;11.87;;;9.73;;
9166;SDS011;4618;48.818;9.088;2022-08-19T01:34:02;12.27;;;9.73;;
9166;SDS011;4618;48.818;9.088;2022-08-19T01:36:36;12.33;;;10.17;;
9166;SDS011;4618;48.818;9.088;2022-08-19T01:39:05;12.00;;;10.13;;
9166;SDS011;4618;48.818;9.088;2022-08-19T01:41:32;11.27;;;9.80;;
9166;SDS011;4618;48.818;9.088;2022-08-19T01:43:59;11.00;;;9.70;;
9166;SDS011;4618;48.818;9.088;2022-08-19T01:46:28;11.87;;;10.17;;
9166;SDS011;4618;48.818;9.088;2022-08-19T01:48:54;11.80;;;9.53;;
9166;SDS011;4618;48.818;9.088;2022-08-19T01:51:19;11.60;;;10.17;;
9166;SDS011;4618;48.818;9.088;2022-08-19T01:53:48;11.53;;;9.60;;
9166;SDS011;4618;48.818;9.088;2022-08-19T01:56:15;13.60;;;11.20;;
9166;SDS011;4618;48.818;9.088;2022-08-19T01:58:45;13.17;;;10.80;;
9166;SDS011;4618;48.818;9.088;2022-08-19T02:01:15;13.53;;;10.93;;
9166;SDS011;4618;48.818;9.088;2022-08-19T02:03:41;14.20;;;11.13;;
9166;SDS011;4618;48.818;9.088;2022-08-19T02:06:07;15.60;;;11.20;;
9166;SDS011;4618;48.818;9.088;2022-08-19T02:08:34;14.47;;;10.90;;
9166;SDS011;4618;48.818;9.088;2022-08-19T02:11:01;14.73;;;10.17;;
9166;SDS011;4618;48.818;9.088;2022-08-19T02:13:28;14.77;;;11.07;;
9166;SDS011;4618;48.818;9.088;2022-08-19T02:15:55;13.77;;;10.27;;
9166;SDS011;4618;48.818;9.088;2022-08-19T02:18:21;14.63;;;11.00;;
9166;SDS011;4618;48.818;9.088;2022-08-19T02:20:47;13.63;;;11.23;;
9166;SDS011;4618;48.818;9.088;2022-08-19T02:23:13;15.07;;;11.37;;
9166;SDS011;4618;48.818;9.088;2022-08-19T02:25:41;13.23;;;10.67;;
9166;SDS011;4618;48.818;9.088;2022-08-19T02:28:08;14.47;;;11.43;;
9166;SDS011;4618;48.818;9.088;2022-08-19T02:30:34;15.73;;;11.60;;
9166;SDS011;4618;48.818;9.088;2022-08-19T02:32:59;12.00;;;10.67;;
9166;SDS011;4618;48.818;9.088;2022-08-19T02:35:25;13.80;;;11.27;;
9166;SDS011;4618;48.818;9.088;2022-08-19T02:37:51;14.43;;;11.43;;
9166;SDS011;4618;48.818;9.088;2022-08-19T02:40:35;14.23;;;11.87;;
9166;SDS011;4618;48.818;9.088;2022-08-19T02:43:02;15.00;;;11.53;;
9166;SDS011;4618;48.818;9.088;2022-08-19T02:45:32;14.83;;;12.07;;
9166;SDS011;4618;48.818;9.088;2022-08-19T02:47:59;16.37;;;11.70;;
9166;SDS011;4618;48.818;9.088;2022-08-19T02:50:25;13.23;;;11.20;;
9166;SDS011;4618;48.818;9.088;2022-08-19T02:52:51;14.67;;;11.67;;
9166;SDS011;4618;48.818;9.088;2022-08-19T02:55:16;15.53;;;12.07;;
9166;SDS011;4618;48.818;9.088;2022-08-19T02:57:42;20.03;;;12.90;;
9166;SDS011;4618;48.818;9.088;2022-08-19T03:00:08;16.53;;;12.60;;
9166;SDS011;4618;48.818;9.088;2022-08-19T03:02:37;14.57;;;11.73;;
9166;SDS011;4618;48.818;9.088;2022-08-19T03:05:03;15.93;;;12.17;;
9166;SDS011;4618;48.818;9.088;2022-08-19T03:07:30;15.93;;;12.43;;
9166;SDS011;4618;48.818;9.088;2022-08-19T03:09:55;15.10;;;12.10;;
9166;SDS011;4618;48.818;9.088;2022-08-19T03:12:21;14.57;;;12.43;;
9166;SDS011;4618;48.818;9.088;2022-08-19T03:14:47;15.57;;;11.97;;
9166;SDS011;4618;48.818;9.088;2022-08-19T03:17:12;16.33;;;12.73;;
9166;SDS011;4618;48.818;9.088;2022-08-19T03:19:38;16.17;;;12.87;;
9166;SDS011;4618;48.818;9.088;2022-08-19T03:22:04;17.07;;;12.90;;
9166;SDS011;4618;48.818;9.088;2022-08-19T03:24:29;15.00;;;12.47;;
9166;SDS011;4618;48.818;9.088;2022-08-19T03:26:56;18.23;;;12.87;;
9166;SDS011;4618;48.818;9.088;2022-08-19T03:29:22;16.93;;;13.10;;
9166;SDS011;4618;48.818;9.088;2022-08-19T03:31:49;15.63;;;12.40;;
9166;SDS011;4618;48.818;9.088;2022-08-19T03:34:24;16.00;;;12.60;;
9166;SDS011;4618;48.818;9.088;2022-08-19T03:36:53;18.70;;;12.93;;
9166;SDS011;4618;48.818;9.088;2022-08-19T03:39:21;15.97;;;13.37;;
9166;SDS011;4618;48.818;9.088;2022-08-19T03:41:48;15.80;;;12.47;;
9166;SDS011;4618;48.818;9.088;2022-08-19T03:44:16;16.37;;;13.60;;
9166;SDS011;4618;48.818;9.088;2022-08-19T03:46:49;17.40;;;13.27;;
9166;SDS011;4618;48.818;9.088;2022-08-19T03:49:17;18.53;;;14.13;;
9166;SDS011;4618;48.818;9.088;2022-08-19T03:51:44;17.63;;;14.63;;
9166;SDS011;4618;48.818;9.088;2022-08-19T03:54:12;20.63;;;15.03;;
9166;SDS011;4618;48.818;9.088;2022-08-19T03:56:39;17.70;;;14.40;;
9166;SDS011;4618;48.818;9.088;2022-08-19T03:59:10;19.63;;;14.60;;
9166;SDS011;4618;48.818;9.088;2022-08-19T04:01:38;16.63;;;14.40;;
9166;SDS011;4618;48.818;9.088;2022-08-19T04:04:04;17.07;;;13.83;;
9166;SDS011;4618;48.818;9.088;2022-08-19T04:06:31;17.30;;;13.70;;
9166;SDS011;4618;48.818;9.088;2022-08-19T04:08:59;18.83;;;14.57;;
9166;SDS011;4618;48.818;9.088;2022-08-19T04:11:28;18.07;;;13.97;;
9166;SDS011;4618;48.818;9.088;2022-08-19T04:14:07;17.03;;;14.27;;
9166;SDS011;4618;48.818;9.088;2022-08-19T04:16:34;16.57;;;14.33;;
9166;SDS011;4618;48.818;9.088;2022-08-19T04:19:00;20.10;;;14.50;;
9166;SDS011;4618;48.818;9.088;2022-08-19T04:21:27;17.57;;;13.93;;
9166;SDS011;4618;48.818;9.088;2022-08-19T04:23:54;18.93;;;14.93;;
9166;SDS011;4618;48.818;9.088;2022-08-19T04:26:21;18.10;;;14.73;;
9166;SDS011;4618;48.818;9.088;2022-08-19T04:28:49;15.97;;;14.27;;
9166;SDS011;4618;48.818;9.088;2022-08-19T04:31:20;17.83;;;14.37;;
9166;SDS011;4618;48.818;9.088;2022-08-19T04:33:51;18.97;;;14.87;;
9166;SDS011;4618;48.818;9.088;2022-08-19T04:36:21;18.23;;;15.43;;
9166;SDS011;4618;48.818;9.088;2022-08-19T04:38:52;17.47;;;14.77;;
9166;SDS011;4618;48.818;9.088;2022-08-19T04:41:19;16.93;;;14.20;;
9166;SDS011;4618;48.818;9.088;2022-08-19T04:44:03;18.07;;;15.00;;
9166;SDS011;4618;48.818;9.088;2022-08-19T04:46:30;17.77;;;14.37;;
9166;SDS011;4618;48.818;9.088;2022-08-19T04:48:56;18.13;;;15.13;;
9166;SDS011;4618;48.818;9.088;2022-08-19T04:51:23;18.77;;;14.20;;
9166;SDS011;4618;48.818;9.088;2022-08-19T04:53:48;18.00;;;14.20;;
9166;SDS011;4618;48.818;9.088;2022-08-19T04:56:15;19.13;;;15.27;;
9166;SDS011;4618;48.818;9.088;2022-08-19T04:58:42;15.97;;;14.23;;
9166;SDS011;4618;48.818;9.088;2022-08-19T05:01:11;18.00;;;14.20;;
9166;SDS011;4618;48.818;9.088;2022-08-19T05:03:38;16.70;;;13.80;;
9166;SDS011;4618;48.818;9.088;2022-08-19T05:06:07;15.20;;;13.20;;
9166;SDS011;4618;48.818;9.088;2022-08-19T05:08:35;16.17;;;13.93;;
9166;SDS011;4618;48.818;9.088;2022-08-19T05:11:07;18.13;;;14.13;;
9166;SDS011;4618;48.818;9.088;2022-08-19T05:13:37;17.47;;;14.40;;
9166;SDS011;4618;48.818;9.088;2022-08-19T05:16:03;17.20;;;14.57;;
9166;SDS011;4618;48.818;9.088;2022-08-19T05:18:29;16.20;;;14.23;;
9166;SDS011;4618;48.818;9.088;2022-08-19T05:21:14;17.67;;;14.67;;
9166;SDS011;4618;48.818;9.088;2022-08-19T05:24:00;15.43;;;13.80;;
9166;SDS011;4618;48.818;9.088;2022-08-19T05:26:27;15.70;;;12.90;;
9166;SDS011;4618;48.818;9.088;2022-08-19T05:28:53;17.17;;;14.43;;
9166;SDS011;4618;48.818;9.088;2022-08-19T05:31:19;16.83;;;13.53;;
9166;SDS011;4618;48.818;9.088;2022-08-19T05:33:45;16.47;;;13.40;;
9166;SDS011;4618;48.818;9.088;2022-08-19T05:36:11;16.33;;;13.97;;
9166;SDS011;4618;48.818;9.088;2022-08-19T05:38:37;15.53;;;13.57;;
9166;SDS011;4618;48.818;9.088;2022-08-19T05:41:07;15.23;;;13.63;;
9166;SDS011;4618;48.818;9.088;2022-08-19T05:43:37;16.43;;;13.80;;
9166;SDS011;4618;48.818;9.088;2022-08-19T05:46:03;16.57;;;13.63;;
9166;SDS011;4618;48.818;9.088;2022-08-19T05:48:30;16.37;;;13.30;;
9166;SDS011;4618;48.818;9.088;2022-08-19T05:50:57;15.47;;;13.77;;
9166;SDS011;4618;48.818;9.088;2022-08-19T05:53:24;17.67;;;14.03;;
9166;SDS011;4618;48.818;9.088;2022-08-19T05:55:50;15.90;;;13.33;;
9166;SDS011;4618;48.818;9.088;2022-08-19T05:58:16;19.30;;;14.83;;
9166;SDS011;4618;48.818;9.088;2022-08-19T06:00:42;17.57;;;13.47;;
9166;SDS011;4618;48.818;9.088;2022-08-19T06:03:09;18.17;;;14.13;;
9166;SDS011;4618;48.818;9.088;2022-08-19T06:05:35;17.23;;;14.30;;
9166;SDS011;4618;48.818;9.088;2022-08-19T06:08:01;17.43;;;13.83;;
9166;SDS011;4618;48.818;9.088;2022-08-19T06:10:26;18.80;;;14.00;;
9166;SDS011;4618;48.818;9.088;2022-08-19T06:12:52;17.13;;;13.53;;
9166;SDS011;4618;48.818;9.088;2022-08-19T06:15:18;18.10;;;13.83;;
9166;SDS011;4618;48.818;9.088;2022-08-19T06:17:44;17.73;;;13.87;;
9166;SDS011;4618;48.818;9.088;2022-08-19T06:20:11;17.03;;;12.90;;
9166;SDS011;4618;48.818;9.088;2022-08-19T06:22:42;18.53;;;14.23;;
9166;SDS011;4618;48.818;9.088;2022-08-19T06:25:11;19.13;;;14.80;;
9166;SDS011;4618;48.818;9.088;2022-08-19T06:27:39;14.93;;;12.60;;
9166;SDS011;4618;48.818;9.088;2022-08-19T06:30:05;17.27;;;14.17;;
9166;SDS011;4618;48.818;9.088;2022-08-19T06:32:31;17.07;;;13.70;;
9166;SDS011;4618;48.818;9.088;2022-08-19T06:34:57;15.40;;;13.80;;
9166;SDS011;4618;48.818;9.088;2022-08-19T06:37:22;15.67;;;12.97;;
9166;SDS011;4618;48.818;9.088;2022-08-19T06:39:48;14.40;;;12.60;;
9166;SDS011;4618;48.818;9.088;2022-08-19T06:42:15;16.70;;;14.07;;
9166;SDS011;4618;48.818;9.088;2022-08-19T06:44:44;15.20;;;12.40;;
9166;SDS011;4618;48.818;9.088;2022-08-19T06:47:13;18.10;;;13.57;;
9166;SDS011;4618;48.818;9.088;2022-08-19T06:49:40;14.90;;;12.53;;
9166;SDS011;4618;48.818;9.088;2022-08-19T06:52:07;16.17;;;13.10;;
9166;SDS011;4618;48.818;9.088;2022-08-19T06:54:33;15.30;;;12.97;;
9166;SDS011;4618;48.818;9.088;2022-08-19T06:56:59;15.97;;;13.17;;
9166;SDS011;4618;48.818;9.088;2022-08-19T06:59:28;18.63;;;12.33;;
9166;SDS011;4618;48.818;9.088;2022-08-19T07:01:58;14.37;;;12.20;;
9166;SDS011;4618;48.818;9.088;2022-08-19T07:04:26;15.07;;;12.27;;
9166;SDS011;4618;48.818;9.088;2022-08-19T07:06:57;17.70;;;12.13;;
9166;SDS011;4618;48.818;9.088;2022-08-19T07:09:31;14.73;;;12.67;;
9166;SDS011;4618;48.818;9.088;2022-08-19T07:11:56;17.93;;;12.60;;
9166;SDS011;4618;48.818;9.088;2022-08-19T07:14:23;17.37;;;11.87;;
9166;SDS011;4618;48.818;9.088;2022-08-19T07:16:51;16.67;;;11.73;;
9166;SDS011;4618;48.818;9.088;2022-08-19T07:19:20;13.23;;;10.87;;
9166;SDS011;4618;48.818;9.088;2022-08-19T07:21:47;14.63;;;12.20;;
9166;SDS011;4618;48.818;9.088;2022-08-19T07:24:14;13.70;;;10.97;;
9166;SDS011;4618;48.818;9.088;2022-08-19T07:26:41;13.07;;;11.67;;
9166;SDS011;4618;48.818;9.088;2022-08-19T07:29:08;17.37;;;11.63;;
9166;SDS011;4618;48.818;9.088;2022-08-19T07:31:35;14.30;;;11.70;;
9166;SDS011;4618;48.818;9.088;2022-08-19T07:34:02;14.83;;;11.70;;
9166;SDS011;4618;48.818;9.088;2022-08-19T07:36:31;12.77;;;11.33;;
9166;SDS011;4618;48.818;9.088;2022-08-19T07:38:58;13.27;;;11.87;;
9166;SDS011;4618;48.818;9.088;2022-08-19T07:41:26;12.23;;;10.97;;
9166;SDS011;4618;48.818;9.088;2022-08-19T07:43:56;14.30;;;11.93;;
9166;SDS011;4618;48.818;9.088;2022-08-19T07:46:23;13.83;;;11.10;;
9166;SDS011;4618;48.818;9.088;2022-08-19T07:48:49;13.33;;;11.17;;
9166;SDS011;4618;48.818;9.088;2022-08-19T07:51:16;11.77;;;10.33;;
9166;SDS011;4618;48.818;9.088;2022-08-19T07:53:43;13.47;;;11.20;;
9166;SDS011;4618;48.818;9.088;2022-08-19T07:56:10;12.63;;;10.50;;
9166;SDS011;4618;48.818;9.088;2022-08-19T07:58:38;14.80;;;10.97;;
9166;SDS011;4618;48.818;9.088;2022-08-19T08:01:06;16.67;;;12.17;;
9166;SDS011;4618;48.818;9.088;2022-08-19T08:03:36;12.97;;;11.50;;
9166;SDS011;4618;48.818;9.088;2022-08-19T08:06:21;12.57;;;10.87;;
9166;SDS011;4618;48.818;9.088;2022-08-19T08:09:06;13.50;;;11.47;;
9166;SDS011;4618;48.818;9.088;2022-08-19T08:14:22;12.67;;;10.53;;
9166;SDS011;4618;48.818;9.088;2022-08-19T08:16:49;14.80;;;10.47;;
9166;SDS011;4618;48.818;9.088;2022-08-19T08:19:17;16.63;;;11.90;;
9166;SDS011;4618;48.818;9.088;2022-08-19T08:21:44;12.60;;;11.13;;
9166;SDS011;4618;48.818;9.088;2022-08-19T08:24:10;13.80;;;11.60;;
9166;SDS011;4618;48.818;9.088;2022-08-19T08:26:36;12.83;;;10.37;;
9166;SDS011;4618;48.818;9.088;2022-08-19T08:29:02;12.73;;;11.47;;
9166;SDS011;4618;48.818;9.088;2022-08-19T08:31:28;16.77;;;11.63;;
9166;SDS011;4618;48.818;9.088;2022-08-19T08:33:53;12.80;;;10.47;;
9166;SDS011;4618;48.818;9.088;2022-08-19T08:36:19;10.87;;;9.77;;
9166;SDS011;4618;48.818;9.088;2022-08-19T08:38:45;10.97;;;9.60;;
9166;SDS011;4618;48.818;9.088;2022-08-19T08:41:14;12.63;;;10.70;;
9166;SDS011;4618;48.818;9.088;2022-08-19T08:43:44;12.03;;;10.70;;
9166;SDS011;4618;48.818;9.088;2022-08-19T08:46:13;11.73;;;10.20;;
9166;SDS011;4618;48.818;9.088;2022-08-19T08:48:49;10.90;;;9.73;;
9166;SDS011;4618;48.818;9.088;2022-08-19T08:51:25;12.07;;;9.80;;
9166;SDS011;4618;48.818;9.088;2022-08-19T08:53:53;11.63;;;10.43;;
9166;SDS011;4618;48.818;9.088;2022-08-19T08:56:20;11.53;;;10.43;;
9166;SDS011;4618;48.818;9.088;2022-08-19T08:58:51;11.10;;;9.97;;
9166;SDS011;4618;48.818;9.088;2022-08-19T09:01:23;12.17;;;10.67;;
9166;SDS011;4618;48.818;9.088;2022-08-19T09:03:48;13.27;;;11.00;;
9166;SDS011;4618;48.818;9.088;2022-08-19T09:14:02;13.07;;;10.27;;
9166;SDS011;4618;48.818;9.088;2022-08-19T09:16:40;11.03;;;9.93;;
9166;SDS011;4618;48.818;9.088;2022-08-19T09:19:07;12.30;;;10.47;;
9166;SDS011;4618;48.818;9.088;2022-08-19T09:21:33;11.27;;;10.13;;
9166;SDS011;4618;48.818;9.088;2022-08-19T09:24:00;10.77;;;9.67;;
9166;SDS011;4618;48.818;9.088;2022-08-19T09:26:26;11.47;;;9.70;;
9166;SDS011;4618;48.818;9.088;2022-08-19T09:28:52;11.97;;;8.70;;
9166;SDS011;4618;48.818;9.088;2022-08-19T09:31:21;11.57;;;9.37;;
9166;SDS011;4618;48.818;9.088;2022-08-19T09:33:50;10.67;;;9.00;;
9166;SDS011;4618;48.818;9.088;2022-08-19T09:36:17;9.73;;;8.70;;
9166;SDS011;4618;48.818;9.088;2022-08-19T09:38:45;9.87;;;8.90;;
9166;SDS011;4618;48.818;9.088;2022-08-19T09:41:18;9.77;;;8.77;;
9166;SDS011;4618;48.818;9.088;2022-08-19T09:43:46;9.20;;;8.30;;
9166;SDS011;4618;48.818;9.088;2022-08-19T09:46:16;8.80;;;8.00;;
9166;SDS011;4618;48.818;9.088;2022-08-19T09:48:44;9.80;;;8.87;;
9166;SDS011;4618;48.818;9.088;2022-08-19T09:51:14;10.80;;;8.37;;
9166;SDS011;4618;48.818;9.088;2022-08-19T09:53:41;10.40;;;8.93;;
9166;SDS011;4618;48.818;9.088;2022-08-19T09:56:09;9.00;;;8.10;;
9166;SDS011;4618;48.818;9.088;2022-08-19T09:58:36;8.90;;;7.70;;
9166;SDS011;4618;48.818;9.088;2022-08-19T10:01:02;9.13;;;8.20;;
9166;SDS011;4618;48.818;9.088;2022-08-19T10:03:30;10.27;;;7.77;;
9166;SDS011;4618;48.818;9.088;2022-08-19T10:05:57;11.00;;;9.07;;
9166;SDS011;4618;48.818;9.088;2022-08-19T10:08:26;9.67;;;8.67;;
9166;SDS011;4618;48.818;9.088;2022-08-19T10:10:53;7.97;;;7.27;;
9166;SDS011;4618;48.818;9.088;2022-08-19T10:13:21;10.13;;;8.27;;
9166;SDS011;4618;48.818;9.088;2022-08-19T10:15:49;8.90;;;7.43;;
9166;SDS011;4618;48.818;9.088;2022-08-19T10:18:18;8.23;;;7.43;;
9166;SDS011;4618;48.818;9.088;2022-08-19T10:20:45;9.48;;;7.30;;
9166;SDS011;4618;48.818;9.088;2022-08-19T10:23:12;12.57;;;7.68;;
9166;SDS011;4618;48.818;9.088;2022-08-19T10:25:38;8.00;;;7.20;;
9166;SDS011;4618;48.818;9.088;2022-08-19T10:28:04;8.33;;;7.37;;
9166;SDS011;4618;48.818;9.088;2022-08-19T10:30:31;8.90;;;6.90;;
9166;SDS011;4618;48.818;9.088;2022-08-19T10:32:56;9.47;;;7.33;;
9166;SDS011;4618;48.818;9.088;2022-08-19T10:35:22;7.30;;;6.60;;
9166;SDS011;4618;48.818;9.088;2022-08-19T10:37:48;7.07;;;6.47;;
9166;SDS011;4618;48.818;9.088;2022-08-19T10:40:14;6.83;;;6.17;;
9166;SDS011;4618;48.818;9.088;2022-08-19T10:42:39;6.57;;;5.97;;
9166;SDS011;4618;48.818;9.088;2022-08-19T10:45:05;7.17;;;6.40;;
9166;SDS011;4618;48.818;9.088;2022-08-19T10:47:32;7.17;;;6.13;;
9166;SDS011;4618;48.818;9.088;2022-08-19T10:49:58;7.90;;;6.07;;
9166;SDS011;4618;48.818;9.088;2022-08-19T10:52:43;6.30;;;5.80;;
9166;SDS011;4618;48.818;9.088;2022-08-19T10:55:11;6.45;;;5.85;;
9166;SDS011;4618;48.818;9.088;2022-08-19T10:57:55;7.03;;;6.32;;
9166;SDS011;4618;48.818;9.088;2022-08-19T11:00:22;7.63;;;6.38;;
9166;SDS011;4618;48.818;9.088;2022-08-19T11:02:49;6.28;;;5.68;;
9166;SDS011;4618;48.818;9.088;2022-08-19T11:05:15;7.18;;;6.38;;
9166;SDS011;4618;48.818;9.088;2022-08-19T11:07:41;6.28;;;5.68;;
9166;SDS011;4618;48.818;9.088;2022-08-19T11:10:08;6.07;;;5.53;;
9166;SDS011;4618;48.818;9.088;2022-08-19T11:12:38;7.45;;;6.15;;
9166;SDS011;4618;48.818;9.088;2022-08-19T11:15:08;6.55;;;5.95;;
9166;SDS011;4618;48.818;9.088;2022-08-19T11:17:36;6.78;;;6.07;;
9166;SDS011;4618;48.818;9.088;2022-08-19T11:20:09;6.60;;;5.97;;
9166;SDS011;4618;48.818;9.088;2022-08-19T11:22:39;6.75;;;5.97;;
9166;SDS011;4618;48.818;9.088;2022-08-19T11:25:05;7.00;;;5.80;;
9166;SDS011;4618;48.818;9.088;2022-08-19T11:27:32;6.55;;;5.03;;
9166;SDS011;4618;48.818;9.088;2022-08-19T11:29:58;6.05;;;5.45;;
9166;SDS011;4618;48.818;9.088;2022-08-19T11:32:24;10.63;;;5.30;;
9166;SDS011;4618;48.818;9.088;2022-08-19T11:34:49;5.50;;;5.00;;
9166;SDS011;4618;48.818;9.088;2022-08-19T11:37:15;8.30;;;5.70;;
9166;SDS011;4618;48.818;9.088;2022-08-19T11:39:40;5.65;;;4.93;;
9166;SDS011;4618;48.818;9.088;2022-08-19T11:42:06;5.60;;;5.07;;
9166;SDS011;4618;48.818;9.088;2022-08-19T11:44:52;6.97;;;5.45;;
9166;SDS011;4618;48.818;9.088;2022-08-19T11:47:18;5.45;;;4.95;;
9166;SDS011;4618;48.818;9.088;2022-08-19T11:49:45;5.85;;;5.13;;
9166;SDS011;4618;48.818;9.088;2022-08-19T11:52:11;5.38;;;4.57;;
9166;SDS011;4618;48.818;9.088;2022-08-19T11:54:37;5.43;;;4.93;;
9166;SDS011;4618;48.818;9.088;2022-08-19T11:57:02;6.20;;;5.60;;
9166;SDS011;4618;48.818;9.088;2022-08-19T11:59:28;5.28;;;4.78;;
9166;SDS011;4618;48.818;9.088;2022-08-19T12:01:54;5.50;;;5.00;;
9166;SDS011;4618;48.818;9.088;2022-08-19T12:04:20;5.35;;;4.85;;
9166;SDS011;4618;48.818;9.088;2022-08-19T12:06:47;5.13;;;4.72;;
9166;SDS011;4618;48.818;9.088;2022-08-19T12:09:13;6.30;;;4.93;;
9166;SDS011;4618;48.818;9.088;2022-08-19T12:11:40;4.85;;;4.38;;
9166;SDS011;4618;48.818;9.088;2022-08-19T12:14:06;5.32;;;4.82;;
9166;SDS011;4618;48.818;9.088;2022-08-19T12:16:34;6.63;;;4.50;;
9166;SDS011;4618;48.818;9.088;2022-08-19T12:19:00;5.03;;;4.53;;
9166;SDS011;4618;48.818;9.088;2022-08-19T12:21:29;4.95;;;4.50;;
9166;SDS011;4618;48.818;9.088;2022-08-19T12:23:56;5.60;;;4.60;;
9166;SDS011;4618;48.818;9.088;2022-08-19T12:26:23;6.00;;;4.60;;
9166;SDS011;4618;48.818;9.088;2022-08-19T12:28:50;6.65;;;4.82;;
9166;SDS011;4618;48.818;9.088;2022-08-19T12:31:16;4.65;;;4.20;;
9166;SDS011;4618;48.818;9.088;2022-08-19T12:33:44;5.03;;;4.53;;
9166;SDS011;4618;48.818;9.088;2022-08-19T12:36:11;5.13;;;4.72;;
9166;SDS011;4618;48.818;9.088;2022-08-19T12:38:39;4.80;;;4.30;;
9166;SDS011;4618;48.818;9.088;2022-08-19T12:41:05;5.15;;;4.38;;
9166;SDS011;4618;48.818;9.088;2022-08-19T12:43:33;5.47;;;4.25;;
9166;SDS011;4618;48.818;9.088;2022-08-19T12:45:59;4.82;;;3.88;;
9166;SDS011;4618;48.818;9.088;2022-08-19T12:48:25;4.50;;;4.10;;
9166;SDS011;4618;48.818;9.088;2022-08-19T12:50:51;4.32;;;3.97;;
9166;SDS011;4618;48.818;9.088;2022-08-19T12:53:16;4.30;;;3.90;;
9166;SDS011;4618;48.818;9.088;2022-08-19T12:55:42;4.55;;;4.15;;
9166;SDS011;4618;48.818;9.088;2022-08-19T12:58:08;4.07;;;3.78;;
9166;SDS011;4618;48.818;9.088;2022-08-19T13:00:34;4.20;;;3.80;;
9166;SDS011;4618;48.818;9.088;2022-08-19T13:03:00;3.80;;;3.47;;
9166;SDS011;4618;48.818;9.088;2022-08-19T13:05:28;5.20;;;4.50;;
9166;SDS011;4618;48.818;9.088;2022-08-19T13:07:57;4.00;;;3.70;;
9166;SDS011;4618;48.818;9.088;2022-08-19T13:10:26;3.60;;;3.30;;
9166;SDS011;4618;48.818;9.088;2022-08-19T13:13:00;30.02;;;5.78;;
9166;SDS011;4618;48.818;9.088;2022-08-19T13:15:28;4.95;;;3.83;;
9166;SDS011;4618;48.818;9.088;2022-08-19T13:17:56;4.40;;;4.00;;
9166;SDS011;4618;48.818;9.088;2022-08-19T13:20:23;37.60;;;6.70;;
9166;SDS011;4618;48.818;9.088;2022-08-19T13:22:49;42.13;;;7.70;;
9166;SDS011;4618;48.818;9.088;2022-08-19T13:25:16;10.38;;;4.43;;
9166;SDS011;4618;48.818;9.088;2022-08-19T13:27:44;4.00;;;3.40;;
9166;SDS011;4618;48.818;9.088;2022-08-19T13:30:11;6.93;;;3.70;;
9166;SDS011;4618;48.818;9.088;2022-08-19T13:32:57;4.07;;;3.40;;
9166;SDS011;4618;48.818;9.088;2022-08-19T13:35:35;4.00;;;3.60;;
9166;SDS011;4618;48.818;9.088;2022-08-19T13:38:22;3.88;;;3.58;;
9166;SDS011;4618;48.818;9.088;2022-08-19T13:40:49;5.30;;;4.32;;
9166;SDS011;4618;48.818;9.088;2022-08-19T13:43:17;7.13;;;3.88;;
9166;SDS011;4618;48.818;9.088;2022-08-19T13:45:46;3.92;;;3.50;;
9166;SDS011;4618;48.818;9.088;2022-08-19T13:48:11;5.28;;;4.43;;
9166;SDS011;4618;48.818;9.088;2022-08-19T13:50:41;4.35;;;3.92;;
9166;SDS011;4618;48.818;9.088;2022-08-19T13:53:09;4.85;;;3.70;;
9166;SDS011;4618;48.818;9.088;2022-08-19T13:55:39;3.70;;;3.40;;
9166;SDS011;4618;48.818;9.088;2022-08-19T13:58:06;5.53;;;3.58;;
9166;SDS011;4618;48.818;9.088;2022-08-19T14:00:34;5.03;;;4.60;;
9166;SDS011;4618;48.818;9.088;2022-08-19T14:03:02;6.25;;;5.65;;
9166;SDS011;4618;48.818;9.088;2022-08-19T14:05:28;7.13;;;6.47;;
9166;SDS011;4618;48.818;9.088;2022-08-19T14:07:55;6.90;;;6.20;;
9166;SDS011;4618;48.818;9.088;2022-08-19T14:10:22;8.27;;;6.97;;
9166;SDS011;4618;48.818;9.088;2022-08-19T14:12:48;6.93;;;6.30;;
9166;SDS011;4618;48.818;9.088;2022-08-19T14:15:16;6.93;;;6.22;;
9166;SDS011;4618;48.818;9.088;2022-08-19T14:17:43;6.72;;;6.10;;
9166;SDS011;4618;48.818;9.088;2022-08-19T14:20:12;6.38;;;5.65;;
9166;SDS011;4618;48.818;9.088;2022-08-19T14:22:38;5.53;;;5.03;;
9166;SDS011;4618;48.818;9.088;2022-08-19T14:25:06;5.95;;;5.25;;
9166;SDS011;4618;48.818;9.088;2022-08-19T14:27:34;5.32;;;4.82;;
9166;SDS011;4618;48.818;9.088;2022-08-19T14:30:01;5.70;;;5.20;;
9166;SDS011;4618;48.818;9.088;2022-08-19T14:32:28;5.45;;;4.95;;
9166;SDS011;4618;48.818;9.088;2022-08-19T14:34:53;5.63;;;5.10;;
9166;SDS011;4618;48.818;9.088;2022-08-19T14:37:19;6.07;;;5.20;;
9166;SDS011;4618;48.818;9.088;2022-08-19T14:39:46;5.38;;;4.82;;
9166;SDS011;4618;48.818;9.088;2022-08-19T14:42:11;6.47;;;5.88;;
9166;SDS011;4618;48.818;9.088;2022-08-19T14:44:39;5.65;;;5.15;;
9166;SDS011;4618;48.818;9.088;2022-08-19T14:47:05;6.50;;;5.93;;
9166;SDS011;4618;48.818;9.088;2022-08-19T14:49:32;6.63;;;6.05;;
9166;SDS011;4618;48.818;9.088;2022-08-19T14:51:58;6.90;;;5.18;;
9166;SDS011;4618;48.818;9.088;2022-08-19T14:54:24;5.55;;;4.93;;
9166;SDS011;4618;48.818;9.088;2022-08-19T14:56:49;4.93;;;4.53;;
9166;SDS011;4618;48.818;9.088;2022-08-19T14:59:15;6.03;;;5.53;;
9166;SDS011;4618;48.818;9.088;2022-08-19T15:01:41;5.82;;;5.32;;
9166;SDS011;4618;48.818;9.088;2022-08-19T15:04:07;5.13;;;4.65;;
9166;SDS011;4618;48.818;9.088;2022-08-19T15:06:32;5.32;;;4.93;;
9166;SDS011;4618;48.818;9.088;2022-08-19T15:08:59;5.70;;;5.20;;
9166;SDS011;4618;48.818;9.088;2022-08-19T15:11:26;3.97;;;3.67;;
9166;SDS011;4618;48.818;9.088;2022-08-19T15:13:53;3.58;;;3.38;;
9166;SDS011;4618;48.818;9.088;2022-08-19T15:16:22;3.85;;;3.50;;